Time;durP1;ratioP1;P1;durP2;ratioP2;P2;SDS_P1;SDS_P2;PMS_P1;PMS_P2;Temp;Humidity;BMP_temperature;BMP_pressure;BME280_temperature;BME280_humidity;BME280_pressure;Samples;Min_cycle;Max_cycle;Signal;HPM_P1;HPM_P2
2022/06/20 00:01:26;;;;;;;14.13;4.30;;;20.00;97.30;;;;;;5015526;28;20437;-87
2022/06/20 00:03:52;;;;;;;13.53;4.40;;;20.00;97.30;;;;;;5015595;28;20453;-87
2022/06/20 00:06:20;;;;;;;10.60;4.33;;;20.00;97.30;;;;;;5015644;28;20715;-87
2022/06/20 00:08:49;;;;;;;11.00;4.90;;;20.00;97.30;;;;;;5015921;28;20459;-87
2022/06/20 00:11:21;;;;;;;12.90;4.43;;;20.00;97.30;;;;;;5016349;28;20419;-86
2022/06/20 00:13:51;;;;;;;10.47;3.80;;;19.90;97.30;;;;;;5015177;28;20988;-87
2022/06/20 00:16:18;;;;;;;15.43;5.43;;;19.80;97.30;;;;;;5015346;28;20554;-87
2022/06/20 00:18:45;;;;;;;14.17;4.00;;;19.80;97.30;;;;;;5004352;28;20423;-87
2022/06/20 00:21:14;;;;;;;9.90;4.53;;;19.80;97.30;;;;;;5013073;28;20913;-86
2022/06/20 00:23:40;;;;;;;9.97;4.20;;;19.80;97.30;;;;;;5014843;28;20450;-86
2022/06/20 00:26:06;;;;;;;7.43;3.97;;;19.80;97.30;;;;;;5014968;28;20924;-87
2022/06/20 00:28:31;;;;;;;14.23;4.70;;;19.80;97.30;;;;;;5015256;28;20455;-88
2022/06/20 00:30:57;;;;;;;8.30;4.10;;;19.80;97.30;;;;;;5008242;28;20431;-87
2022/06/20 00:33:23;;;;;;;10.40;4.40;;;19.90;97.30;;;;;;5018749;28;20191;-87
2022/06/20 00:35:48;;;;;;;9.80;4.87;;;19.90;97.30;;;;;;5014674;28;20354;-88
2022/06/20 00:38:20;;;;;;;15.80;4.83;;;19.90;97.30;;;;;;5013860;28;20211;-87
2022/06/20 00:40:52;;;;;;;19.37;5.10;;;19.90;97.30;;;;;;5005923;28;20582;-88
2022/06/20 00:43:31;;;;;;;12.77;4.63;;;19.90;97.30;;;;;;5001388;28;20856;-87
2022/06/20 00:46:02;;;;;;;12.43;4.53;;;20.00;97.30;;;;;;5009667;28;20462;-87
2022/06/20 00:48:45;;;;;;;15.23;5.23;;;20.00;97.30;;;;;;5013570;28;20463;-86
2022/06/20 00:51:31;;;;;;;8.97;4.23;;;20.00;97.30;;;;;;5014240;28;20424;-87
2022/06/20 00:54:19;;;;;;;12.53;4.20;;;20.00;97.30;;;;;;5015316;28;20407;-87
2022/06/20 00:56:53;;;;;;;15.83;4.80;;;20.00;97.30;;;;;;5014513;28;20430;-87
2022/06/20 00:59:30;;;;;;;13.00;4.90;;;20.10;97.30;;;;;;5014946;28;20513;-87
2022/06/20 01:01:57;;;;;;;14.37;5.33;;;20.10;97.30;;;;;;5014666;28;20506;-86
2022/06/20 01:04:44;;;;;;;9.53;4.97;;;20.10;97.30;;;;;;5014455;28;20553;-87
2022/06/20 01:07:20;;;;;;;18.43;6.00;;;20.10;97.30;;;;;;5014250;28;20470;-85
2022/06/20 01:09:49;;;;;;;10.93;5.20;;;19.90;97.30;;;;;;5014280;28;20477;-87
2022/06/20 01:12:19;;;;;;;12.53;5.70;;;19.80;97.30;;;;;;5012616;28;20428;-86
2022/06/20 01:14:45;;;;;;;13.63;4.87;;;19.70;97.30;;;;;;5014196;28;20430;-85
2022/06/20 01:17:25;;;;;;;15.67;5.53;;;19.60;97.30;;;;;;5009780;28;20773;-86
2022/06/20 01:19:54;;;;;;;11.93;5.60;;;19.60;97.30;;;;;;5008713;28;20266;-86
2022/06/20 01:22:52;;;;;;;15.90;6.47;;;19.50;97.30;;;;;;5013852;28;20958;-87
2022/06/20 01:25:24;;;;;;;10.67;6.20;;;19.50;97.30;;;;;;5014275;28;20550;-86
2022/06/20 01:27:51;;;;;;;16.23;6.10;;;19.40;97.30;;;;;;5031640;28;20442;-87
2022/06/20 01:30:20;;;;;;;12.10;5.67;;;19.40;97.30;;;;;;5013678;28;20940;-86
2022/06/20 01:32:46;;;;;;;17.30;5.93;;;19.40;97.30;;;;;;5013107;28;20399;-86
2022/06/20 01:37:23;;;;;;;16.20;5.63;;;19.30;97.30;;;;;;5030632;28;20447;-87
2022/06/20 01:38:04;;;;;;;16.27;6.23;;;19.20;97.30;;;;;;5022050;28;20489;-86
2022/06/20 01:40:30;;;;;;;17.93;5.90;;;19.20;97.30;;;;;;5010227;28;20463;-86
2022/06/20 01:42:57;;;;;;;17.00;5.50;;;19.20;97.30;;;;;;5000756;28;20816;-86
2022/06/20 01:48:12;;;;;;;16.60;5.83;;;19.20;97.30;;;;;;5019800;28;20469;-85
2022/06/20 01:50:41;;;;;;;13.57;5.40;;;19.20;97.30;;;;;;5013550;28;20431;-87
2022/06/20 01:53:10;;;;;;;21.10;6.93;;;19.10;97.30;;;;;;5031114;28;20500;-86
2022/06/20 01:55:36;;;;;;;15.43;6.97;;;19.10;97.30;;;;;;5013259;28;20419;-86
2022/06/20 01:58:14;;;;;;;20.40;5.60;;;19.10;97.30;;;;;;5012787;28;20451;-86
2022/06/20 02:00:40;;;;;;;13.00;6.00;;;19.10;97.30;;;;;;5012732;28;20874;-86
2022/06/20 02:03:09;;;;;;;21.30;5.40;;;19.00;97.30;;;;;;5013415;28;20518;-86
2022/06/20 02:05:35;;;;;;;24.07;8.00;;;19.00;97.30;;;;;;5013220;28;20177;-86
2022/06/20 02:08:04;;;;;;;19.47;6.70;;;18.90;97.30;;;;;;5002423;28;20464;-86
2022/06/20 02:10:45;;;;;;;22.20;6.67;;;18.90;97.30;;;;;;5011305;28;20729;-87
2022/06/20 02:13:13;;;;;;;10.40;5.00;;;18.80;97.30;;;;;;4999802;28;20428;-86
2022/06/20 02:15:40;;;;;;;15.47;5.77;;;18.80;97.30;;;;;;5000471;28;20423;-86
2022/06/20 02:18:08;;;;;;;14.30;6.20;;;18.80;97.30;;;;;;5012733;28;20443;-86
2022/06/20 02:20:45;;;;;;;15.13;6.17;;;18.70;97.30;;;;;;5012773;28;20423;-85
2022/06/20 02:23:18;;;;;;;13.90;5.90;;;18.70;97.30;;;;;;5012715;28;20573;-85
2022/06/20 02:25:45;;;;;;;15.70;6.03;;;18.70;97.30;;;;;;5003774;28;20450;-86
2022/06/20 02:28:16;;;;;;;16.67;6.07;;;18.60;97.30;;;;;;5008620;28;20456;-86
2022/06/20 02:30:42;;;;;;;15.17;5.47;;;18.60;97.30;;;;;;5003366;28;20413;-86
2022/06/20 02:33:18;;;;;;;19.53;7.07;;;18.60;97.30;;;;;;5010744;28;20769;-86
2022/06/20 02:35:44;;;;;;;15.17;6.10;;;18.60;97.30;;;;;;5010154;28;20227;-85
2022/06/20 02:38:10;;;;;;;19.70;6.83;;;18.60;97.30;;;;;;5013045;28;20471;-87
2022/06/20 02:40:41;;;;;;;16.83;5.73;;;18.60;97.30;;;;;;5009683;28;20782;-87
2022/06/20 02:43:28;;;;;;;12.73;6.60;;;18.60;97.30;;;;;;5012637;28;20824;-85
2022/06/20 02:45:56;;;;;;;15.10;6.33;;;18.60;97.30;;;;;;4997238;28;20479;-86
2022/06/20 02:48:24;;;;;;;17.40;6.37;;;18.50;97.30;;;;;;4986581;28;20507;-87
2022/06/20 02:50:57;;;;;;;26.20;6.70;;;18.50;97.30;;;;;;4984105;28;20452;-87
2022/06/20 02:53:38;;;;;;;22.20;6.20;;;18.40;97.30;;;;;;4997614;28;20416;-87
2022/06/20 02:56:06;;;;;;;18.07;6.13;;;18.40;97.30;;;;;;4978501;28;20416;-87
2022/06/20 02:58:34;;;;;;;21.97;6.00;;;18.40;97.30;;;;;;4991243;28;20428;-85
2022/06/20 03:01:16;;;;;;;22.70;6.37;;;18.40;97.30;;;;;;4986891;28;20420;-87
2022/06/20 03:03:48;;;;;;;9.77;5.63;;;18.40;97.30;;;;;;4994741;28;20781;-87
2022/06/20 03:06:26;;;;;;;15.87;5.90;;;18.40;97.30;;;;;;4994572;28;20432;-87
2022/06/20 03:08:54;;;;;;;17.80;6.50;;;18.30;97.30;;;;;;4983762;28;20463;-87
2022/06/20 03:11:20;;;;;;;18.20;7.07;;;18.30;97.30;;;;;;4994255;28;20414;-87
2022/06/20 03:13:46;;;;;;;15.87;6.43;;;18.30;97.30;;;;;;4986090;28;20903;-87
2022/06/20 03:16:13;;;;;;;22.63;7.30;;;18.30;97.30;;;;;;4996582;28;20419;-87
2022/06/20 03:18:49;;;;;;;16.37;7.07;;;18.20;97.30;;;;;;4992968;28;20487;-87
2022/06/20 03:21:21;;;;;;;17.97;6.40;;;18.20;97.30;;;;;;4996666;28;20428;-89
2022/06/20 03:23:47;;;;;;;14.40;6.20;;;18.20;97.30;;;;;;4996833;28;20428;-87
2022/06/20 03:26:17;;;;;;;10.30;6.23;;;18.20;97.30;;;;;;5014429;28;20816;-87
2022/06/20 03:28:43;;;;;;;14.57;7.10;;;18.20;97.30;;;;;;4977540;28;20261;-87
2022/06/20 03:31:10;;;;;;;18.60;6.40;;;18.20;97.30;;;;;;4991578;28;20424;-87
2022/06/20 03:33:36;;;;;;;17.40;7.20;;;18.20;97.30;;;;;;4989029;28;20452;-86
2022/06/20 03:36:25;;;;;;;17.43;7.03;;;18.20;97.30;;;;;;4990928;28;20478;-87
2022/06/20 03:38:51;;;;;;;15.57;7.20;;;18.20;97.30;;;;;;4996397;28;20420;-87
2022/06/20 03:41:21;;;;;;;14.37;6.23;;;18.20;97.30;;;;;;4995969;28;20421;-87
2022/06/20 03:44:03;;;;;;;17.30;6.03;;;18.10;97.30;;;;;;4995877;28;20418;-87
2022/06/20 03:46:55;;;;;;;20.60;7.40;;;18.10;97.30;;;;;;5000735;28;20467;-87
2022/06/20 03:49:39;;;;;;;20.23;8.30;;;18.10;97.30;;;;;;4993077;28;20566;-87
2022/06/20 03:52:20;;;;;;;21.37;7.47;;;18.10;97.30;;;;;;4990787;28;20421;-87
2022/06/20 03:54:59;;;;;;;17.20;6.53;;;18.10;97.30;;;;;;4990348;28;20439;-87
2022/06/20 03:57:43;;;;;;;15.63;6.40;;;18.10;97.30;;;;;;4995772;28;20432;-87
2022/06/20 04:00:16;;;;;;;16.40;6.13;;;18.10;97.30;;;;;;4988387;28;20423;-87
2022/06/20 04:02:58;;;;;;;11.80;6.10;;;18.10;97.30;;;;;;4989687;28;20448;-88
2022/06/20 04:05:34;;;;;;;11.03;5.63;;;18.10;97.30;;;;;;4980656;28;20416;-87
2022/06/20 04:08:08;;;;;;;16.67;6.47;;;18.10;97.30;;;;;;4985682;28;20432;-87
2022/06/20 04:10:58;;;;;;;11.83;5.87;;;18.00;97.30;;;;;;4994047;28;20431;-87
2022/06/20 04:13:23;;;;;;;13.13;6.27;;;18.00;97.30;;;;;;4982680;28;20513;-87
2022/06/20 04:15:54;;;;;;;25.20;6.23;;;18.00;97.30;;;;;;4995801;28;20507;-87
2022/06/20 04:18:30;;;;;;;12.30;6.50;;;18.00;97.30;;;;;;4985697;28;20209;-87
2022/06/20 04:21:26;;;;;;;15.20;5.00;;;18.00;97.30;;;;;;4986331;28;20425;-88
2022/06/20 04:24:10;;;;;;;8.03;6.00;;;18.10;97.30;;;;;;4983840;28;20420;-87
2022/06/20 04:27:01;;;;;;;21.97;6.37;;;18.10;97.30;;;;;;4995153;28;20436;-87
2022/06/20 04:29:53;;;;;;;11.07;5.40;;;18.10;97.30;;;;;;4994039;28;20992;-87
2022/06/20 04:32:24;;;;;;;20.20;5.90;;;18.10;97.30;;;;;;4977919;28;20461;-87
2022/06/20 04:35:13;;;;;;;12.43;4.77;;;18.10;97.30;;;;;;4994835;28;20417;-87
2022/06/20 04:37:51;;;;;;;13.47;5.27;;;18.10;97.30;;;;;;4985909;28;20825;-87
2022/06/20 04:40:28;;;;;;;9.80;4.60;;;18.20;97.30;;;;;;4984931;28;20425;-88
2022/06/20 04:43:11;;;;;;;13.20;6.00;;;18.20;97.30;;;;;;4987601;28;20429;-88
2022/06/20 04:45:57;;;;;;;10.63;5.67;;;18.20;97.30;;;;;;4980298;28;20552;-87
2022/06/20 04:48:30;;;;;;;18.03;6.03;;;18.20;97.30;;;;;;5013576;28;20470;-87
2022/06/20 04:51:10;;;;;;;10.17;5.20;;;18.30;97.30;;;;;;4998244;28;20439;-88
2022/06/20 04:53:42;;;;;;;14.40;5.60;;;18.20;97.30;;;;;;5007385;28;20454;-88
2022/06/20 04:56:13;;;;;;;11.97;5.53;;;18.20;97.30;;;;;;5006634;28;20495;-87
2022/06/20 04:58:48;;;;;;;12.30;6.60;;;18.30;97.30;;;;;;5008536;28;20515;-87
2022/06/20 05:01:16;;;;;;;12.70;5.60;;;18.30;97.30;;;;;;5006311;28;20956;-86
2022/06/20 05:03:55;;;;;;;14.90;6.73;;;18.30;97.30;;;;;;5018703;28;20413;-87
2022/06/20 05:06:24;;;;;;;14.27;6.50;;;18.30;97.30;;;;;;5012558;28;20500;-87
2022/06/20 05:08:53;;;;;;;11.73;6.20;;;18.20;97.30;;;;;;5010641;28;20466;-86
2022/06/20 05:11:27;;;;;;;15.53;6.53;;;18.10;97.30;;;;;;5013031;28;20411;-86
2022/06/20 05:14:21;;;;;;;20.80;8.83;;;17.90;97.30;;;;;;5001572;28;20932;-86
2022/06/20 05:16:51;;;;;;;25.97;14.20;;;17.80;97.30;;;;;;4998571;28;20987;-87
2022/06/20 05:19:28;;;;;;;28.90;14.03;;;17.70;97.30;;;;;;5004143;28;20424;-85
2022/06/20 05:21:57;;;;;;;27.77;14.40;;;17.50;97.30;;;;;;5007421;28;20415;-84
2022/06/20 05:24:29;;;;;;;28.03;15.43;;;17.40;97.30;;;;;;4994350;28;20447;-83
2022/06/20 05:26:57;;;;;;;30.83;16.90;;;17.30;97.30;;;;;;5012531;28;20435;-84
2022/06/20 05:29:26;;;;;;;22.07;15.00;;;17.20;97.30;;;;;;5001079;28;20456;-83
2022/06/20 05:31:54;;;;;;;23.63;13.60;;;17.20;97.30;;;;;;5013218;28;20439;-84
2022/06/20 05:34:40;;;;;;;20.70;12.90;;;17.10;97.30;;;;;;5012992;28;20423;-84
2022/06/20 05:37:44;;;;;;;19.33;11.83;;;17.10;97.30;;;;;;4997097;28;20996;-85
2022/06/20 05:40:18;;;;;;;18.47;10.97;;;17.10;97.30;;;;;;4993591;28;20477;-84
2022/06/20 05:42:45;;;;;;;18.33;10.90;;;17.10;97.30;;;;;;4993647;28;20455;-84
2022/06/20 05:45:30;;;;;;;23.70;12.53;;;17.10;97.30;;;;;;5001461;28;20467;-83
2022/06/20 05:48:00;;;;;;;23.27;13.20;;;17.10;97.30;;;;;;5007701;28;20695;-83
2022/06/20 05:50:43;;;;;;;22.33;12.17;;;17.10;97.30;;;;;;5006126;28;20411;-83
2022/06/20 05:53:38;;;;;;;20.63;12.20;;;17.10;97.30;;;;;;5001903;28;20411;-83
2022/06/20 05:56:19;;;;;;;20.70;12.33;;;17.10;97.30;;;;;;5012499;28;20415;-83
2022/06/20 05:58:46;;;;;;;16.33;10.30;;;17.10;97.30;;;;;;5018061;28;20781;-83
2022/06/20 06:01:25;;;;;;;16.40;9.07;;;17.10;97.30;;;;;;5013370;28;20497;-82
2022/06/20 06:04:00;;;;;;;28.63;12.07;;;17.20;97.30;;;;;;5010288;28;20503;-83
2022/06/20 06:06:48;;;;;;;15.27;10.23;;;17.20;97.30;;;;;;5004133;28;20431;-83
2022/06/20 06:09:20;;;;;;;18.50;9.10;;;17.20;97.30;;;;;;5000447;28;20512;-83
2022/06/20 06:11:55;;;;;;;22.27;10.63;;;17.20;97.30;;;;;;4999749;28;20413;-83
2022/06/20 06:14:39;;;;;;;16.90;9.40;;;17.20;97.30;;;;;;5003598;28;20979;-82
2022/06/20 06:17:21;;;;;;;33.23;11.50;;;17.20;97.30;;;;;;5012736;28;20443;-81
2022/06/20 06:20:01;;;;;;;25.73;10.83;;;17.20;97.30;;;;;;5002902;28;20424;-82
2022/06/20 06:22:39;;;;;;;17.90;9.87;;;17.20;97.30;;;;;;5015644;28;20422;-81
2022/06/20 06:25:19;;;;;;;19.00;9.27;;;17.20;97.30;;;;;;4998472;28;20444;-80
2022/06/20 06:27:49;;;;;;;21.23;9.73;;;17.10;97.30;;;;;;5009020;28;20489;-80
2022/06/20 06:30:30;;;;;;;19.83;9.60;;;17.10;97.30;;;;;;5013874;28;20808;-80
2022/06/20 06:33:02;;;;;;;15.30;8.27;;;17.10;97.30;;;;;;5027489;28;20829;-80
2022/06/20 06:35:42;;;;;;;15.87;8.40;;;17.00;97.30;;;;;;4996899;28;20432;-80
2022/06/20 06:38:32;;;;;;;17.40;8.33;;;17.00;97.30;;;;;;5014858;28;20766;-80
2022/06/20 06:41:00;;;;;;;19.40;7.90;;;17.00;97.30;;;;;;5002859;28;20760;-80
2022/06/20 06:43:38;;;;;;;15.03;7.87;;;17.00;97.30;;;;;;5016046;28;20420;-80
2022/06/20 06:46:10;;;;;;;15.63;8.90;;;17.00;97.30;;;;;;5014717;28;20466;-80
2022/06/20 06:48:45;;;;;;;17.40;8.60;;;17.00;97.30;;;;;;5015066;28;21054;-80
2022/06/20 06:51:18;;;;;;;20.47;7.77;;;16.90;97.30;;;;;;5009585;28;20542;-81
2022/06/20 06:53:55;;;;;;;18.60;8.37;;;16.80;97.30;;;;;;5009355;28;20694;-80
2022/06/20 06:56:28;;;;;;;17.67;8.90;;;16.80;97.30;;;;;;5004792;28;20502;-80
2022/06/20 06:59:13;;;;;;;13.30;8.63;;;16.80;97.30;;;;;;5015301;28;20423;-80
2022/06/20 07:01:45;;;;;;;18.00;8.77;;;16.80;97.30;;;;;;5015736;28;20966;-81
2022/06/20 07:04:35;;;;;;;26.30;9.00;;;16.80;97.30;;;;;;4997731;28;20420;-80
2022/06/20 07:07:23;;;;;;;20.50;10.53;;;16.90;97.30;;;;;;5009335;28;20485;-80
2022/06/20 07:09:51;;;;;;;25.43;11.47;;;16.90;97.30;;;;;;5008934;28;20454;-80
2022/06/20 07:12:35;;;;;;;19.70;11.50;;;16.90;97.30;;;;;;5002616;28;20415;-80
2022/06/20 07:15:14;;;;;;;23.23;13.20;;;17.00;97.30;;;;;;5019856;28;20435;-81
2022/06/20 07:18:00;;;;;;;36.30;14.30;;;16.90;97.30;;;;;;5001583;28;20444;-80
2022/06/20 07:20:33;;;;;;;29.40;14.57;;;16.90;97.30;;;;;;5014845;28;20823;-80
2022/06/20 07:23:04;;;;;;;37.37;14.50;;;16.80;97.30;;;;;;5016165;28;20538;-80
2022/06/20 07:25:37;;;;;;;25.03;13.03;;;16.80;97.30;;;;;;5016016;28;20431;-81
2022/06/20 07:28:24;;;;;;;28.70;14.50;;;16.80;97.30;;;;;;5015733;28;20941;-81
2022/06/20 07:31:09;;;;;;;26.27;14.20;;;16.80;97.30;;;;;;5016220;28;20518;-81
2022/06/20 07:33:53;;;;;;;34.50;15.87;;;16.90;97.30;;;;;;5008881;28;20444;-81
2022/06/20 07:36:25;;;;;;;29.73;14.20;;;16.90;97.30;;;;;;5015898;28;20415;-80
2022/06/20 07:39:09;;;;;;;36.67;14.37;;;17.00;97.30;;;;;;5019745;28;20438;-80
2022/06/20 07:41:49;;;;;;;32.97;14.17;;;17.10;97.30;;;;;;5014118;28;20456;-80
2022/06/20 07:44:41;;;;;;;33.07;14.20;;;17.20;97.30;;;;;;5036453;28;20484;-81
2022/06/20 07:47:13;;;;;;;28.87;14.07;;;17.20;97.30;;;;;;5000560;28;20466;-81
2022/06/20 07:49:45;;;;;;;24.57;11.90;;;17.30;97.30;;;;;;5011948;28;20474;-81
2022/06/20 07:52:17;;;;;;;25.30;12.83;;;17.20;97.30;;;;;;5010650;28;20434;-81
2022/06/20 07:54:52;;;;;;;24.30;11.80;;;17.20;97.30;;;;;;5005875;28;20452;-80
2022/06/20 07:57:35;;;;;;;21.77;12.23;;;17.20;97.30;;;;;;5011693;28;20450;-79
2022/06/20 08:00:25;;;;;;;18.10;10.83;;;17.20;97.30;;;;;;5000496;28;20420;-81
2022/06/20 08:03:02;;;;;;;23.80;10.93;;;17.20;97.30;;;;;;5040483;28;20913;-81
2022/06/20 08:05:50;;;;;;;16.70;9.83;;;17.20;97.30;;;;;;5011792;28;20545;-81
2022/06/20 08:08:18;;;;;;;18.17;11.07;;;17.20;97.30;;;;;;5036758;28;20828;-81
2022/06/20 08:11:08;;;;;;;12.93;9.57;;;17.20;97.30;;;;;;5019448;28;20993;-81
2022/06/20 08:13:48;;;;;;;15.00;8.60;;;17.10;97.30;;;;;;5009215;28;20419;-81
2022/06/20 08:16:18;;;;;;;18.73;10.10;;;17.20;97.30;;;;;;5033078;28;20486;-81
2022/06/20 08:18:44;;;;;;;14.50;8.70;;;17.10;97.30;;;;;;5017607;28;20963;-81
2022/06/20 08:21:26;;;;;;;14.70;9.90;;;17.10;97.30;;;;;;5019030;28;20415;-81
2022/06/20 08:24:01;;;;;;;23.03;10.53;;;17.10;97.30;;;;;;5006706;28;20184;-81
2022/06/20 08:26:34;;;;;;;17.90;11.13;;;17.10;97.30;;;;;;5018551;28;20449;-82
2022/06/20 08:29:08;;;;;;;19.90;12.23;;;17.00;97.30;;;;;;5018490;28;20517;-82
2022/06/20 08:31:51;;;;;;;22.17;11.60;;;17.00;97.30;;;;;;5018979;28;20423;-82
2022/06/20 08:34:32;;;;;;;21.53;11.87;;;17.00;97.30;;;;;;5015513;28;20529;-82
2022/06/20 08:37:20;;;;;;;18.90;12.03;;;17.00;97.30;;;;;;5004048;28;20447;-81
2022/06/20 08:40:01;;;;;;;25.20;13.37;;;17.00;97.30;;;;;;5007387;28;20447;-81
2022/06/20 08:42:36;;;;;;;23.97;13.70;;;17.00;97.30;;;;;;5004452;28;20794;-82
2022/06/20 08:45:23;;;;;;;23.87;14.10;;;17.00;97.30;;;;;;5017442;28;20904;-81
2022/06/20 08:48:08;;;;;;;25.87;15.23;;;17.00;97.30;;;;;;5006866;28;20960;-82
2022/06/20 08:51:01;;;;;;;24.50;15.13;;;17.00;97.30;;;;;;5004443;28;20427;-82
2022/06/20 08:53:52;;;;;;;24.23;14.90;;;17.00;97.30;;;;;;5017302;28;20423;-82
2022/06/20 08:56:44;;;;;;;26.17;14.47;;;17.00;97.30;;;;;;5008893;28;20419;-82
2022/06/20 08:59:39;;;;;;;27.37;15.53;;;17.00;97.30;;;;;;5017396;28;20419;-82
2022/06/20 09:02:39;;;;;;;25.23;15.13;;;17.00;97.30;;;;;;5012200;28;20420;-81
2022/06/20 09:05:20;;;;;;;26.90;17.53;;;17.00;97.30;;;;;;5012777;28;20424;-82
2022/06/20 09:07:54;;;;;;;28.53;16.13;;;17.00;97.30;;;;;;5017240;28;20442;-82
2022/06/20 09:10:43;;;;;;;30.20;18.20;;;17.00;97.30;;;;;;4997947;28;20459;-82
2022/06/20 09:13:47;;;;;;;29.80;17.30;;;17.00;97.30;;;;;;5000658;28;20427;-82
2022/06/20 09:16:28;;;;;;;33.07;18.40;;;17.10;97.30;;;;;;5016705;28;20423;-82
2022/06/20 09:19:09;;;;;;;32.93;19.07;;;17.10;97.30;;;;;;5007649;28;20815;-81
2022/06/20 09:21:59;;;;;;;31.50;16.93;;;17.10;97.30;;;;;;5010398;28;20423;-82
2022/06/20 09:24:48;;;;;;;29.93;18.20;;;17.00;97.30;;;;;;4997943;28;20897;-82
2022/06/20 09:27:24;;;;;;;29.40;16.77;;;17.10;97.30;;;;;;5005859;28;20435;-81
2022/06/20 09:30:08;;;;;;;30.30;17.27;;;17.00;97.30;;;;;;5003490;28;20470;-82
2022/06/20 09:32:53;;;;;;;30.73;17.07;;;17.10;97.30;;;;;;5007848;28;20424;-82
2022/06/20 09:36:04;;;;;;;37.53;18.70;;;17.10;97.30;;;;;;5005361;28;20408;-82
2022/06/20 09:39:05;;;;;;;28.43;16.03;;;17.10;97.30;;;;;;5002815;28;20423;-82
2022/06/20 09:41:54;;;;;;;38.70;17.70;;;17.10;97.30;;;;;;5005327;28;20425;-82
2022/06/20 09:44:37;;;;;;;40.67;19.00;;;17.10;97.30;;;;;;5009299;28;20463;-82
2022/06/20 09:47:28;;;;;;;28.37;15.67;;;17.10;97.30;;;;;;5010042;28;20438;-82
2022/06/20 09:49:58;;;;;;;29.13;16.90;;;17.10;97.30;;;;;;5004274;28;20460;-82
2022/06/20 09:52:40;;;;;;;30.37;16.63;;;17.00;97.30;;;;;;4995950;28;20455;-82
2022/06/20 09:55:55;;;;;;;28.67;14.50;;;17.00;97.30;;;;;;5009798;28;20439;-82
2022/06/20 09:58:37;;;;;;;26.13;15.03;;;17.10;97.30;;;;;;4971914;28;20476;-82
2022/06/20 10:01:35;;;;;;;25.90;14.27;;;17.10;97.30;;;;;;5005470;28;20422;-82
2022/06/20 10:04:40;;;;;;;20.60;13.27;;;17.10;97.30;;;;;;5012759;28;20455;-83
2022/06/20 10:07:20;;;;;;;19.73;11.30;;;17.10;97.30;;;;;;4993055;28;20444;-82
2022/06/20 10:10:10;;;;;;;10.67;7.83;;;17.10;97.30;;;;;;5006346;28;20521;-82
2022/06/20 10:13:09;;;;;;;9.87;5.60;;;17.10;97.30;;;;;;5000325;28;20792;-82
2022/06/20 10:16:11;;;;;;;6.87;5.23;;;17.10;97.30;;;;;;5001871;28;20468;-82
2022/06/20 10:18:54;;;;;;;12.00;6.60;;;17.00;97.30;;;;;;5003471;28;20933;-82
2022/06/20 10:21:45;;;;;;;8.00;6.23;;;17.00;97.30;;;;;;4993626;28;20427;-82
2022/06/20 10:24:51;;;;;;;11.63;6.40;;;17.00;97.30;;;;;;5008933;28;20419;-82
2022/06/20 10:27:55;;;;;;;9.97;5.90;;;17.00;97.30;;;;;;5005171;28;20451;-82
2022/06/20 10:30:32;;;;;;;11.33;6.73;;;16.90;97.30;;;;;;5012462;28;20460;-82
2022/06/20 10:33:19;;;;;;;18.20;7.50;;;16.80;97.30;;;;;;5007251;28;20936;-83
2022/06/20 10:36:05;;;;;;;13.07;7.57;;;16.80;97.30;;;;;;5009588;28;20430;-82
2022/06/20 10:38:40;;;;;;;9.50;7.43;;;16.80;97.30;;;;;;5007274;28;20957;-82
2022/06/20 10:41:15;;;;;;;9.80;7.13;;;16.80;97.30;;;;;;5006305;28;20455;-82
2022/06/20 10:43:58;;;;;;;14.30;7.40;;;16.80;97.30;;;;;;5012336;28;20423;-82
2022/06/20 10:46:33;;;;;;;7.40;5.80;;;16.70;97.30;;;;;;5006578;28;20470;-82
2022/06/20 10:49:19;;;;;;;8.20;5.30;;;16.60;97.30;;;;;;5011405;28;20545;-83
2022/06/20 10:51:58;;;;;;;6.23;5.17;;;16.50;97.30;;;;;;4999545;28;20415;-82
2022/06/20 10:54:49;;;;;;;6.57;4.90;;;16.40;97.30;;;;;;5012487;28;20479;-82
2022/06/20 10:57:41;;;;;;;10.30;5.30;;;16.30;97.30;;;;;;5003124;28;20443;-83
2022/06/20 11:00:17;;;;;;;9.60;5.57;;;16.20;97.30;;;;;;4996907;28;20981;-83
2022/06/20 11:02:51;;;;;;;15.83;6.47;;;16.10;97.30;;;;;;5007443;28;20927;-82
2022/06/20 11:05:36;;;;;;;13.30;6.03;;;16.10;97.30;;;;;;4999461;28;20415;-83
2022/06/20 11:08:29;;;;;;;8.97;7.10;;;16.00;97.30;;;;;;4994938;28;20859;-82
2022/06/20 11:11:03;;;;;;;7.03;3.47;;;16.00;97.30;;;;;;5009913;28;20433;-82
2022/06/20 11:13:41;;;;;;;2.87;2.23;;;15.80;97.30;;;;;;5006837;28;20533;-83
2022/06/20 11:16:31;;;;;;;5.43;2.93;;;15.70;97.30;;;;;;5009159;28;20420;-82
2022/06/20 11:19:12;;;;;;;4.60;2.60;;;15.50;97.30;;;;;;5002504;28;20415;-82
2022/06/20 11:22:05;;;;;;;6.07;3.40;;;15.40;97.30;;;;;;5028236;28;20438;-82
2022/06/20 11:24:49;;;;;;;4.90;3.60;;;15.30;97.30;;;;;;5014191;28;20963;-82
2022/06/20 11:27:41;;;;;;;8.53;3.90;;;15.20;97.30;;;;;;5003493;28;20477;-81
2022/06/20 11:30:16;;;;;;;5.90;3.80;;;15.10;97.30;;;;;;5009555;28;20455;-82
2022/06/20 11:32:48;;;;;;;7.10;4.37;;;15.10;97.30;;;;;;5016438;28;20654;-82
2022/06/20 11:35:43;;;;;;;5.80;3.60;;;15.10;97.30;;;;;;5010680;28;20492;-82
2022/06/20 11:38:41;;;;;;;7.20;3.90;;;15.00;97.30;;;;;;4980502;28;20941;-82
2022/06/20 11:41:15;;;;;;;6.37;4.13;;;15.10;97.30;;;;;;5013855;28;20473;-82
2022/06/20 11:44:06;;;;;;;7.20;4.53;;;15.00;97.30;;;;;;5014401;28;20464;-82
2022/06/20 11:46:53;;;;;;;5.23;3.87;;;15.00;97.30;;;;;;5009226;28;20544;-82
2022/06/20 11:49:33;;;;;;;6.13;3.90;;;15.00;97.30;;;;;;5012536;28;20455;-82
2022/06/20 11:52:21;;;;;;;6.17;4.40;;;15.00;97.30;;;;;;5010497;28;20446;-82
2022/06/20 11:55:09;;;;;;;5.63;4.30;;;15.00;97.30;;;;;;5013637;28;20403;-83
2022/06/20 11:57:40;;;;;;;7.70;4.50;;;14.90;97.30;;;;;;5010216;28;20651;-83
2022/06/20 12:04:11;;;;;;;6.07;4.10;;;14.90;97.30;;;;;;4957064;28;20494;-81
2022/06/20 12:07:12;;;;;;;6.80;3.97;;;14.90;97.30;;;;;;5018783;28;20439;-80
2022/06/20 12:10:01;;;;;;;6.30;4.73;;;14.90;97.30;;;;;;5020553;28;20530;-80
2022/06/20 12:13:01;;;;;;;6.70;4.20;;;14.90;97.30;;;;;;5020009;28;20620;-81
2022/06/20 12:16:14;;;;;;;7.00;4.27;;;14.80;97.30;;;;;;4981660;28;20428;-81
2022/06/20 12:28:40;;;;;;;4.50;2.87;;;14.40;97.30;;;;;;4999849;28;20960;-81
2022/06/20 12:34:53;;;;;;;3.40;2.27;;;14.20;97.30;;;;;;5021819;28;20423;-81
2022/06/20 12:37:52;;;;;;;3.53;1.73;;;14.00;97.30;;;;;;5006164;28;20945;-80
2022/06/20 12:41:03;;;;;;;2.80;1.50;;;13.80;97.30;;;;;;5033761;28;20419;-82
2022/06/20 12:43:57;;;;;;;2.43;1.70;;;13.70;97.30;;;;;;4952721;28;20428;-81
2022/06/20 12:46:42;;;;;;;2.63;1.57;;;13.60;97.30;;;;;;5019642;28;20458;-82
2022/06/20 12:49:22;;;;;;;8.30;1.67;;;13.50;97.30;;;;;;5025143;28;20510;-81
2022/06/20 12:52:09;;;;;;;2.63;1.30;;;13.40;97.30;;;;;;5020746;28;20415;-81
2022/06/20 12:55:00;;;;;;;2.20;1.80;;;13.40;97.30;;;;;;5008861;28;20430;-81
2022/06/20 12:58:12;;;;;;;2.10;1.53;;;13.20;97.30;;;;;;5004810;28;20440;-81
2022/06/20 13:01:25;;;;;;;;;;;;;;;;;;;;;
2022/06/20 13:04:00;;;;;;;1.97;1.33;;;13.30;97.30;;;;;;5033272;28;20419;-81
2022/06/20 13:06:47;;;;;;;2.17;1.60;;;13.30;97.30;;;;;;5011910;28;20435;-81
2022/06/20 13:09:13;;;;;;;2.47;1.67;;;13.30;97.30;;;;;;5008777;28;20483;-81
2022/06/20 13:11:41;;;;;;;2.30;1.57;;;13.30;97.30;;;;;;5020287;28;20427;-81
2022/06/20 13:14:42;;;;;;;1.60;1.53;;;13.30;97.30;;;;;;5009530;28;20169;-81
2022/06/20 13:17:23;;;;;;;2.20;1.67;;;13.30;97.30;;;;;;5011535;28;20517;-81
2022/06/20 13:20:07;;;;;;;4.50;1.60;;;13.30;97.30;;;;;;5021050;28;20434;-81
2022/06/20 13:23:01;;;;;;;3.50;2.13;;;13.30;97.30;;;;;;5002115;28;20424;-81
2022/06/20 13:25:50;;;;;;;1.83;1.80;;;13.40;97.30;;;;;;5025892;28;20509;-81
2022/06/20 13:28:21;;;;;;;7.77;1.73;;;13.40;97.30;;;;;;5016748;28;20518;-81
2022/06/20 13:31:20;;;;;;;4.53;2.13;;;13.40;97.30;;;;;;5001568;28;20409;-81
2022/06/20 13:34:24;;;;;;;7.13;2.23;;;13.30;97.30;;;;;;5002364;28;20942;-81
2022/06/20 13:37:19;;;;;;;3.37;2.33;;;13.40;97.30;;;;;;5029939;28;20435;-81
2022/06/20 13:40:11;;;;;;;2.70;1.87;;;13.40;97.30;;;;;;4992650;28;20798;-81
2022/06/20 13:42:45;;;;;;;1.80;1.70;;;13.30;97.30;;;;;;5037825;28;20964;-81
2022/06/20 13:45:29;;;;;;;4.80;2.07;;;13.30;97.30;;;;;;5010809;28;20470;-80
2022/06/20 13:48:19;;;;;;;5.03;2.63;;;13.30;97.30;;;;;;5015414;28;20447;-81
2022/06/20 13:51:20;;;;;;;3.00;2.53;;;13.30;97.30;;;;;;5022677;28;20435;-80
2022/06/20 13:53:51;;;;;;;4.73;2.20;;;13.30;97.30;;;;;;5024197;28;20418;-80
2022/06/20 13:56:32;;;;;;;4.73;2.10;;;13.30;97.30;;;;;;5035083;28;20439;-81
2022/06/20 13:59:31;;;;;;;6.63;2.40;;;13.40;97.30;;;;;;5025140;28;20423;-81
2022/06/20 14:02:31;;;;;;;5.20;2.13;;;13.40;97.30;;;;;;5039760;28;20416;-81